sensor_id;sensor_type;location;lat;lon;timestamp;pressure;altitude;pressure_sealevel;temperature;humidity
63554;BME280;49699;48.072;7.800;2022-10-16T00:00:35;99242.84;;;14.28;91.54
63554;BME280;49699;48.072;7.800;2022-10-16T00:03:02;99242.84;;;14.28;91.53
63554;BME280;49699;48.072;7.800;2022-10-16T00:05:27;99253.41;;;14.27;91.48
63554;BME280;49699;48.072;7.800;2022-10-16T00:07:53;99256.88;;;14.27;91.52
63554;BME280;49699;48.072;7.800;2022-10-16T00:10:19;99255.09;;;14.28;91.47
63554;BME280;49699;48.072;7.800;2022-10-16T00:12:44;99250.56;;;14.30;91.50
63554;BME280;49699;48.072;7.800;2022-10-16T00:15:09;99251.41;;;14.30;91.50
63554;BME280;49699;48.072;7.800;2022-10-16T00:17:35;99255.59;;;14.33;91.36
63554;BME280;49699;48.072;7.800;2022-10-16T00:20:00;99253.78;;;14.33;91.38
63554;BME280;49699;48.072;7.800;2022-10-16T00:22:26;99256.28;;;14.35;91.39
63554;BME280;49699;48.072;7.800;2022-10-16T00:24:52;99257.84;;;14.37;91.21
63554;BME280;49699;48.072;7.800;2022-10-16T00:27:17;99250.81;;;14.38;91.33
63554;BME280;49699;48.072;7.800;2022-10-16T00:29:43;99249.88;;;14.39;91.10
63554;BME280;49699;48.072;7.800;2022-10-16T00:32:08;99255.75;;;14.42;91.22
63554;BME280;49699;48.072;7.800;2022-10-16T00:34:34;99254.78;;;14.43;91.15
63554;BME280;49699;48.072;7.800;2022-10-16T00:36:59;99253.84;;;14.44;91.20
63554;BME280;49699;48.072;7.800;2022-10-16T00:39:25;99254.69;;;14.45;91.10
63554;BME280;49699;48.072;7.800;2022-10-16T00:41:50;99255.50;;;14.45;90.84
63554;BME280;49699;48.072;7.800;2022-10-16T00:44:51;99260.03;;;14.43;91.20
63554;BME280;49699;48.072;7.800;2022-10-16T00:47:34;99264.53;;;14.41;91.03
63554;BME280;49699;48.072;7.800;2022-10-16T00:50:08;99267.16;;;14.41;91.03
63554;BME280;49699;48.072;7.800;2022-10-16T00:52:34;99268.09;;;14.40;91.28
63554;BME280;49699;48.072;7.800;2022-10-16T00:55:02;99272.59;;;14.38;91.16
63554;BME280;49699;48.072;7.800;2022-10-16T00:57:28;99269.13;;;14.38;91.27
63554;BME280;49699;48.072;7.800;2022-10-16T00:59:54;99267.47;;;14.37;91.28
63554;BME280;49699;48.072;7.800;2022-10-16T01:02:20;99270.91;;;14.37;91.46
63554;BME280;49699;48.072;7.800;2022-10-16T01:04:50;99282.22;;;14.38;91.43
63554;BME280;49699;48.072;7.800;2022-10-16T01:10:20;99289.25;;;14.37;91.34
63554;BME280;49699;48.072;7.800;2022-10-16T01:13:05;99285.69;;;14.38;91.48
63554;BME280;49699;48.072;7.800;2022-10-16T01:15:50;99292.69;;;14.38;91.53
63554;BME280;49699;48.072;7.800;2022-10-16T01:18:46;99297.09;;;14.37;91.44
63554;BME280;49699;48.072;7.800;2022-10-16T01:21:16;99290.09;;;14.38;91.57
63554;BME280;49699;48.072;7.800;2022-10-16T01:28:58;99285.19;;;14.33;91.57
63554;BME280;49699;48.072;7.800;2022-10-16T01:31:27;99287.94;;;14.32;91.47
63554;BME280;49699;48.072;7.800;2022-10-16T01:33:56;99282.00;;;14.30;91.52
63554;BME280;49699;48.072;7.800;2022-10-16T01:36:37;99288.06;;;14.30;91.71
63554;BME280;49699;48.072;7.800;2022-10-16T01:39:06;99286.28;;;14.31;91.67
63554;BME280;49699;48.072;7.800;2022-10-16T01:41:37;99287.22;;;14.30;91.27
63554;BME280;49699;48.072;7.800;2022-10-16T01:44:07;99272.59;;;14.27;91.34
63554;BME280;49699;48.072;7.800;2022-10-16T01:46:36;99275.09;;;14.29;91.50
63554;BME280;49699;48.072;7.800;2022-10-16T01:49:02;99276.88;;;14.28;91.33
63554;BME280;49699;48.072;7.800;2022-10-16T01:51:29;99266.50;;;14.27;91.52
63554;BME280;49699;48.072;7.800;2022-10-16T01:53:57;99266.63;;;14.25;91.47
63554;BME280;49699;48.072;7.800;2022-10-16T01:56:25;99267.56;;;14.24;91.31
63554;BME280;49699;48.072;7.800;2022-10-16T01:59:09;99274.81;;;14.20;91.40
63554;BME280;49699;48.072;7.800;2022-10-16T02:01:39;99272.19;;;14.20;91.54
63554;BME280;49699;48.072;7.800;2022-10-16T02:04:13;99274.09;;;14.18;91.50
63554;BME280;49699;48.072;7.800;2022-10-16T02:06:40;99275.88;;;14.18;91.59
63554;BME280;49699;48.072;7.800;2022-10-16T02:09:06;99279.31;;;14.18;91.53
63554;BME280;49699;48.072;7.800;2022-10-16T02:11:32;99269.09;;;14.15;91.44
63554;BME280;49699;48.072;7.800;2022-10-16T02:14:05;99275.41;;;14.13;91.73
63554;BME280;49699;48.072;7.800;2022-10-16T02:16:42;99271.22;;;14.10;91.68
63554;BME280;49699;48.072;7.800;2022-10-16T02:19:12;99273.00;;;14.10;91.88
63554;BME280;49699;48.072;7.800;2022-10-16T02:21:44;99274.78;;;14.09;91.77
63554;BME280;49699;48.072;7.800;2022-10-16T02:24:46;99280.84;;;14.10;91.87
63554;BME280;49699;48.072;7.800;2022-10-16T02:29:55;99273.22;;;14.07;91.58
63554;BME280;49699;48.072;7.800;2022-10-16T02:32:28;99273.56;;;14.02;91.69
63554;BME280;49699;48.072;7.800;2022-10-16T02:34:56;99276.28;;;14.01;91.91
63554;BME280;49699;48.072;7.800;2022-10-16T02:37:23;99268.56;;;13.99;91.81
63554;BME280;49699;48.072;7.800;2022-10-16T02:39:50;99275.56;;;13.99;91.79
63554;BME280;49699;48.072;7.800;2022-10-16T02:42:18;99282.47;;;14.00;91.91
63554;BME280;49699;48.072;7.800;2022-10-16T02:44:43;99286.97;;;13.98;91.88
63554;BME280;49699;48.072;7.800;2022-10-16T02:47:09;99290.44;;;13.98;91.91
63554;BME280;49699;48.072;7.800;2022-10-16T02:49:34;99287.59;;;14.01;92.13
63554;BME280;49699;48.072;7.800;2022-10-16T02:52:00;99289.25;;;14.02;92.14
63554;BME280;49699;48.072;7.800;2022-10-16T02:54:25;99290.00;;;14.04;91.84
63554;BME280;49699;48.072;7.800;2022-10-16T02:56:51;99297.84;;;14.04;91.77
63554;BME280;49699;48.072;7.800;2022-10-16T02:59:17;99290.81;;;14.05;91.85
63554;BME280;49699;48.072;7.800;2022-10-16T03:01:42;99296.91;;;14.05;91.96
63554;BME280;49699;48.072;7.800;2022-10-16T03:04:08;99287.38;;;14.04;91.86
63554;BME280;49699;48.072;7.800;2022-10-16T03:06:34;99288.22;;;14.05;91.60
63554;BME280;49699;48.072;7.800;2022-10-16T03:08:59;99291.88;;;14.02;91.76
63554;BME280;49699;48.072;7.800;2022-10-16T03:11:25;99294.63;;;14.01;91.91
63554;BME280;49699;48.072;7.800;2022-10-16T03:13:51;99287.72;;;14.00;91.70
63554;BME280;49699;48.072;7.800;2022-10-16T03:16:17;99280.81;;;13.99;91.86
63554;BME280;49699;48.072;7.800;2022-10-16T03:18:42;99280.81;;;13.99;91.89
63554;BME280;49699;48.072;7.800;2022-10-16T03:21:08;99277.34;;;13.98;91.91
63554;BME280;49699;48.072;7.800;2022-10-16T03:23:33;99266.19;;;13.96;91.90
63554;BME280;49699;48.072;7.800;2022-10-16T03:25:59;99269.75;;;13.95;91.92
63554;BME280;49699;48.072;7.800;2022-10-16T03:28:24;99274.16;;;13.95;92.04
63554;BME280;49699;48.072;7.800;2022-10-16T03:30:50;99280.34;;;13.94;92.19
63554;BME280;49699;48.072;7.800;2022-10-16T03:33:15;99280.34;;;13.94;92.17
63554;BME280;49699;48.072;7.800;2022-10-16T03:35:41;99289.97;;;13.93;92.00
63554;BME280;49699;48.072;7.800;2022-10-16T03:38:06;99285.69;;;13.92;92.22
63554;BME280;49699;48.072;7.800;2022-10-16T03:40:32;99284.00;;;13.91;92.12
63554;BME280;49699;48.072;7.800;2022-10-16T03:42:58;99289.00;;;13.94;92.28
63554;BME280;49699;48.072;7.800;2022-10-16T03:45:24;99289.84;;;13.95;92.08
63554;BME280;49699;48.072;7.800;2022-10-16T03:47:49;99282.94;;;13.94;92.17
63554;BME280;49699;48.072;7.800;2022-10-16T03:50:15;99303.78;;;13.95;92.13
63554;BME280;49699;48.072;7.800;2022-10-16T03:52:41;99292.47;;;13.95;92.12
63554;BME280;49699;48.072;7.800;2022-10-16T03:55:06;99291.63;;;13.94;92.23
63554;BME280;49699;48.072;7.800;2022-10-16T03:57:32;99295.19;;;13.93;92.13
63554;BME280;49699;48.072;7.800;2022-10-16T03:59:58;99302.09;;;13.94;92.22
63554;BME280;49699;48.072;7.800;2022-10-16T04:02:23;99286.50;;;13.93;92.17
63554;BME280;49699;48.072;7.800;2022-10-16T04:04:49;99290.19;;;13.90;92.25
63554;BME280;49699;48.072;7.800;2022-10-16T04:07:14;99292.78;;;13.90;92.21
63554;BME280;49699;48.072;7.800;2022-10-16T04:09:40;99288.50;;;13.89;92.25
63554;BME280;49699;48.072;7.800;2022-10-16T04:12:05;99294.78;;;13.86;92.14
63554;BME280;49699;48.072;7.800;2022-10-16T04:14:30;99295.63;;;13.87;92.39
63554;BME280;49699;48.072;7.800;2022-10-16T04:16:56;99286.94;;;13.86;92.46
63554;BME280;49699;48.072;7.800;2022-10-16T04:19:21;99294.91;;;13.85;92.45
63554;BME280;49699;48.072;7.800;2022-10-16T04:21:47;99292.28;;;13.85;92.57
63554;BME280;49699;48.072;7.800;2022-10-16T04:24:12;99290.50;;;13.85;92.61
63554;BME280;49699;48.072;7.800;2022-10-16T04:26:38;99291.47;;;13.84;92.54
63554;BME280;49699;48.072;7.800;2022-10-16T04:29:03;99299.31;;;13.84;92.62
63554;BME280;49699;48.072;7.800;2022-10-16T04:31:29;99300.97;;;13.85;92.41
63554;BME280;49699;48.072;7.800;2022-10-16T04:33:54;99291.34;;;13.86;92.42
63554;BME280;49699;48.072;7.800;2022-10-16T04:36:20;99295.63;;;13.87;92.33
63554;BME280;49699;48.072;7.800;2022-10-16T04:38:45;99293.84;;;13.87;92.43
63554;BME280;49699;48.072;7.800;2022-10-16T04:41:10;99297.31;;;13.88;92.22
63554;BME280;49699;48.072;7.800;2022-10-16T04:43:36;99300.03;;;13.86;92.44
63554;BME280;49699;48.072;7.800;2022-10-16T04:46:01;99300.88;;;13.87;92.24
63554;BME280;49699;48.072;7.800;2022-10-16T04:48:30;99297.31;;;13.88;92.40
63554;BME280;49699;48.072;7.800;2022-10-16T04:50:55;99291.13;;;13.89;92.21
63554;BME280;49699;48.072;7.800;2022-10-16T04:53:21;99288.50;;;13.89;92.30
63554;BME280;49699;48.072;7.800;2022-10-16T04:55:46;99297.19;;;13.89;92.32
63554;BME280;49699;48.072;7.800;2022-10-16T04:58:12;99301.69;;;13.87;92.28
63554;BME280;49699;48.072;7.800;2022-10-16T05:00:37;99304.44;;;13.86;92.21
63554;BME280;49699;48.072;7.800;2022-10-16T05:03:03;99308.81;;;13.85;92.25
63554;BME280;49699;48.072;7.800;2022-10-16T05:05:32;99316.78;;;13.84;92.57
63554;BME280;49699;48.072;7.800;2022-10-16T05:07:58;99317.63;;;13.84;92.48
63554;BME280;49699;48.072;7.800;2022-10-16T05:10:23;99313.22;;;13.85;92.41
63554;BME280;49699;48.072;7.800;2022-10-16T05:12:48;99320.22;;;13.84;92.42
63554;BME280;49699;48.072;7.800;2022-10-16T05:15:15;99325.34;;;13.86;92.46
63554;BME280;49699;48.072;7.800;2022-10-16T05:17:40;99329.53;;;13.88;92.37
63554;BME280;49699;48.072;7.800;2022-10-16T05:20:06;99324.19;;;13.90;92.27
63554;BME280;49699;48.072;7.800;2022-10-16T05:22:31;99323.97;;;13.93;92.22
63554;BME280;49699;48.072;7.800;2022-10-16T05:24:57;99330.88;;;13.94;92.11
63554;BME280;49699;48.072;7.800;2022-10-16T05:27:22;99339.56;;;13.95;92.29
63554;BME280;49699;48.072;7.800;2022-10-16T05:29:48;99328.16;;;13.96;92.13
63554;BME280;49699;48.072;7.800;2022-10-16T05:32:18;99322.91;;;13.96;92.08
63554;BME280;49699;48.072;7.800;2022-10-16T05:34:44;99326.38;;;13.96;92.05
63554;BME280;49699;48.072;7.800;2022-10-16T05:37:11;99315.06;;;13.96;92.20
63554;BME280;49699;48.072;7.800;2022-10-16T05:39:37;99320.41;;;13.94;92.21
63554;BME280;49699;48.072;7.800;2022-10-16T05:42:03;99325.66;;;13.94;92.26
63554;BME280;49699;48.072;7.800;2022-10-16T05:44:29;99330.78;;;13.96;92.29
63554;BME280;49699;48.072;7.800;2022-10-16T05:46:54;99336.59;;;13.99;92.25
63554;BME280;49699;48.072;7.800;2022-10-16T05:49:20;99337.44;;;14.00;92.47
63554;BME280;49699;48.072;7.800;2022-10-16T05:51:45;99343.50;;;14.00;92.01
63554;BME280;49699;48.072;7.800;2022-10-16T05:54:11;99329.47;;;14.01;92.22
63554;BME280;49699;48.072;7.800;2022-10-16T05:56:36;99333.75;;;14.02;92.15
63554;BME280;49699;48.072;7.800;2022-10-16T05:59:03;99333.75;;;14.02;92.15
63554;BME280;49699;48.072;7.800;2022-10-16T06:01:29;99351.97;;;14.04;92.01
63554;BME280;49699;48.072;7.800;2022-10-16T06:03:56;99345.06;;;14.03;92.09
63554;BME280;49699;48.072;7.800;2022-10-16T06:06:24;99336.25;;;14.04;92.04
63554;BME280;49699;48.072;7.800;2022-10-16T06:08:51;99344.94;;;14.04;91.92
63554;BME280;49699;48.072;7.800;2022-10-16T06:11:20;99350.28;;;14.03;92.25
63554;BME280;49699;48.072;7.800;2022-10-16T06:13:49;99357.09;;;14.05;92.24
63554;BME280;49699;48.072;7.800;2022-10-16T06:16:15;99368.28;;;14.07;92.02
63554;BME280;49699;48.072;7.800;2022-10-16T06:18:41;99369.94;;;14.08;91.93
63554;BME280;49699;48.072;7.800;2022-10-16T06:21:18;99379.69;;;14.06;91.96
63554;BME280;49699;48.072;7.800;2022-10-16T06:23:44;99378.03;;;14.05;92.19
63554;BME280;49699;48.072;7.800;2022-10-16T06:26:13;99383.34;;;14.04;92.08
63554;BME280;49699;48.072;7.800;2022-10-16T06:28:39;99389.66;;;14.01;92.45
63554;BME280;49699;48.072;7.800;2022-10-16T06:31:06;99394.16;;;13.99;92.10
63554;BME280;49699;48.072;7.800;2022-10-16T06:33:32;99409.84;;;13.99;92.28
63554;BME280;49699;48.072;7.800;2022-10-16T06:36:06;99412.34;;;14.01;92.37
63554;BME280;49699;48.072;7.800;2022-10-16T06:38:32;99414.97;;;14.01;92.29
63554;BME280;49699;48.072;7.800;2022-10-16T06:40:58;99413.09;;;14.03;92.25
63554;BME280;49699;48.072;7.800;2022-10-16T06:43:24;99412.03;;;14.05;92.06
63554;BME280;49699;48.072;7.800;2022-10-16T06:45:56;99403.97;;;14.08;92.06
63554;BME280;49699;48.072;7.800;2022-10-16T06:48:23;99414.34;;;14.10;92.16
63554;BME280;49699;48.072;7.800;2022-10-16T06:53:21;99406.00;;;14.16;92.06
63554;BME280;49699;48.072;7.800;2022-10-16T06:55:47;99422.44;;;14.18;91.89
63554;BME280;49699;48.072;7.800;2022-10-16T06:58:12;99430.91;;;14.21;91.74
63554;BME280;49699;48.072;7.800;2022-10-16T07:00:37;99436.78;;;14.25;91.80
63554;BME280;49699;48.072;7.800;2022-10-16T07:03:03;99441.06;;;14.26;91.60
63554;BME280;49699;48.072;7.800;2022-10-16T07:05:28;99436.44;;;14.30;91.74
63554;BME280;49699;48.072;7.800;2022-10-16T07:07:54;99439.91;;;14.30;91.58
63554;BME280;49699;48.072;7.800;2022-10-16T07:10:19;99439.78;;;14.32;91.72
63554;BME280;49699;48.072;7.800;2022-10-16T07:12:45;99436.22;;;14.33;91.65
63554;BME280;49699;48.072;7.800;2022-10-16T07:15:10;99437.75;;;14.35;91.61
63554;BME280;49699;48.072;7.800;2022-10-16T07:17:35;99439.22;;;14.39;91.45
63554;BME280;49699;48.072;7.800;2022-10-16T07:20:01;99439.88;;;14.43;91.32
63554;BME280;49699;48.072;7.800;2022-10-16T07:22:28;99452.72;;;14.46;91.43
63554;BME280;49699;48.072;7.800;2022-10-16T07:24:53;99454.06;;;14.51;91.31
63554;BME280;49699;48.072;7.800;2022-10-16T07:27:19;99456.22;;;14.57;90.47
63554;BME280;49699;48.072;7.800;2022-10-16T07:29:47;99461.13;;;14.62;90.70
63554;BME280;49699;48.072;7.800;2022-10-16T07:32:12;99461.53;;;14.69;90.69
63554;BME280;49699;48.072;7.800;2022-10-16T07:34:38;99471.66;;;14.73;90.29
63554;BME280;49699;48.072;7.800;2022-10-16T07:37:04;99478.34;;;14.77;90.19
63554;BME280;49699;48.072;7.800;2022-10-16T07:39:30;99475.59;;;14.79;90.20
63554;BME280;49699;48.072;7.800;2022-10-16T07:41:55;99485.88;;;14.82;90.07
63554;BME280;49699;48.072;7.800;2022-10-16T07:44:21;99481.34;;;14.84;89.89
63554;BME280;49699;48.072;7.800;2022-10-16T07:46:46;99486.34;;;14.87;89.76
63554;BME280;49699;48.072;7.800;2022-10-16T07:49:12;99487.06;;;14.89;89.92
63554;BME280;49699;48.072;7.800;2022-10-16T07:51:37;99480.03;;;14.89;89.84
63554;BME280;49699;48.072;7.800;2022-10-16T07:54:04;99478.84;;;14.93;89.77
63554;BME280;49699;48.072;7.800;2022-10-16T07:56:30;99492.47;;;14.99;89.46
63554;BME280;49699;48.072;7.800;2022-10-16T07:58:56;99492.00;;;15.05;89.22
63554;BME280;49699;48.072;7.800;2022-10-16T08:01:22;99493.09;;;15.13;89.05
63554;BME280;49699;48.072;7.800;2022-10-16T08:03:49;99498.47;;;15.23;88.73
63554;BME280;49699;48.072;7.800;2022-10-16T08:06:16;99500.41;;;15.32;88.43
63554;BME280;49699;48.072;7.800;2022-10-16T08:08:42;99495.44;;;15.40;88.39
63554;BME280;49699;48.072;7.800;2022-10-16T08:11:08;99504.59;;;15.46;88.01
63554;BME280;49699;48.072;7.800;2022-10-16T08:13:34;99510.22;;;15.52;87.80
63554;BME280;49699;48.072;7.800;2022-10-16T08:16:00;99512.53;;;15.57;87.54
63554;BME280;49699;48.072;7.800;2022-10-16T08:18:26;99493.06;;;15.59;87.50
63554;BME280;49699;48.072;7.800;2022-10-16T08:20:57;99504.16;;;15.63;87.47
63554;BME280;49699;48.072;7.800;2022-10-16T08:23:23;99492.47;;;15.67;87.37
63554;BME280;49699;48.072;7.800;2022-10-16T08:25:51;99495.34;;;15.75;87.10
63554;BME280;49699;48.072;7.800;2022-10-16T08:28:16;99500.22;;;15.80;86.79
63554;BME280;49699;48.072;7.800;2022-10-16T08:30:41;99508.47;;;15.86;86.55
63554;BME280;49699;48.072;7.800;2022-10-16T08:33:07;99493.19;;;15.91;86.52
63554;BME280;49699;48.072;7.800;2022-10-16T08:35:33;99509.41;;;15.96;86.27
63554;BME280;49699;48.072;7.800;2022-10-16T08:37:58;99498.53;;;16.01;86.04
63554;BME280;49699;48.072;7.800;2022-10-16T08:40:26;99485.19;;;16.04;85.96
63554;BME280;49699;48.072;7.800;2022-10-16T08:48:08;99505.84;;;16.09;85.72
63554;BME280;49699;48.072;7.800;2022-10-16T08:50:37;99502.81;;;16.13;85.74
63554;BME280;49699;48.072;7.800;2022-10-16T08:53:04;99512.84;;;16.19;85.61
63554;BME280;49699;48.072;7.800;2022-10-16T08:57:58;99519.41;;;16.25;85.33
63554;BME280;49699;48.072;7.800;2022-10-16T09:00:24;99518.34;;;16.27;85.19
63554;BME280;49699;48.072;7.800;2022-10-16T09:03:11;99512.97;;;16.29;85.09
63554;BME280;49699;48.072;7.800;2022-10-16T09:06:25;99510.66;;;16.36;85.05
63554;BME280;49699;48.072;7.800;2022-10-16T09:11:52;99504.44;;;16.48;84.66
63554;BME280;49699;48.072;7.800;2022-10-16T09:19:46;99528.25;;;16.78;83.57
63554;BME280;49699;48.072;7.800;2022-10-16T09:22:16;99528.31;;;16.88;83.29
63554;BME280;49699;48.072;7.800;2022-10-16T09:24:43;99533.53;;;16.99;82.90
63554;BME280;49699;48.072;7.800;2022-10-16T09:27:11;99544.78;;;17.22;82.04
63554;BME280;49699;48.072;7.800;2022-10-16T09:29:37;99539.84;;;17.49;81.09
63554;BME280;49699;48.072;7.800;2022-10-16T09:32:15;99547.22;;;17.76;80.06
63554;BME280;49699;48.072;7.800;2022-10-16T09:34:54;99553.00;;;18.00;78.75
63554;BME280;49699;48.072;7.800;2022-10-16T09:37:22;99550.94;;;18.04;78.18
63554;BME280;49699;48.072;7.800;2022-10-16T09:39:53;99555.81;;;18.09;77.89
63554;BME280;49699;48.072;7.800;2022-10-16T09:42:21;99544.59;;;18.16;77.77
63554;BME280;49699;48.072;7.800;2022-10-16T09:44:49;99548.97;;;18.27;77.42
63554;BME280;49699;48.072;7.800;2022-10-16T09:47:26;99542.59;;;18.39;76.80
63554;BME280;49699;48.072;7.800;2022-10-16T09:49:53;99542.75;;;18.47;76.53
63554;BME280;49699;48.072;7.800;2022-10-16T09:52:21;99539.56;;;18.53;76.35
63554;BME280;49699;48.072;7.800;2022-10-16T09:57:19;99539.06;;;18.69;75.45
63554;BME280;49699;48.072;7.800;2022-10-16T09:59:50;99542.84;;;18.76;74.91
63554;BME280;49699;48.072;7.800;2022-10-16T10:02:19;99543.66;;;18.86;74.80
63554;BME280;49699;48.072;7.800;2022-10-16T10:04:50;99532.16;;;18.97;74.66
63554;BME280;49699;48.072;7.800;2022-10-16T10:07:18;99530.19;;;19.08;74.01
63554;BME280;49699;48.072;7.800;2022-10-16T10:09:45;99534.19;;;19.22;73.56
63554;BME280;49699;48.072;7.800;2022-10-16T10:12:19;99535.72;;;19.34;73.12
63554;BME280;49699;48.072;7.800;2022-10-16T10:14:47;99535.69;;;19.44;72.82
63554;BME280;49699;48.072;7.800;2022-10-16T10:19:47;99540.28;;;19.61;72.63
63554;BME280;49699;48.072;7.800;2022-10-16T10:22:41;99543.19;;;19.68;72.74
63554;BME280;49699;48.072;7.800;2022-10-16T10:28:02;99548.97;;;19.81;72.69
63554;BME280;49699;48.072;7.800;2022-10-16T10:30:42;99547.56;;;19.87;72.55
63554;BME280;49699;48.072;7.800;2022-10-16T10:36:29;99536.25;;;20.04;72.17
63554;BME280;49699;48.072;7.800;2022-10-16T10:44:49;99532.59;;;20.32;71.61
63554;BME280;49699;48.072;7.800;2022-10-16T10:50:10;99541.88;;;20.46;71.82
63554;BME280;49699;48.072;7.800;2022-10-16T10:55:21;99536.69;;;20.54;71.61
63554;BME280;49699;48.072;7.800;2022-10-16T11:05:44;99536.75;;;20.62;71.66
63554;BME280;49699;48.072;7.800;2022-10-16T11:08:18;99533.81;;;20.65;71.41
63554;BME280;49699;48.072;7.800;2022-10-16T11:10:54;99531.84;;;20.67;71.33
63554;BME280;49699;48.072;7.800;2022-10-16T11:13:50;99536.69;;;20.72;71.14
63554;BME280;49699;48.072;7.800;2022-10-16T11:16:38;99522.69;;;20.79;70.61
63554;BME280;49699;48.072;7.800;2022-10-16T11:21:59;99521.03;;;20.96;69.77
63554;BME280;49699;48.072;7.800;2022-10-16T11:24:42;99527.09;;;21.06;69.54
63554;BME280;49699;48.072;7.800;2022-10-16T11:27:14;99529.97;;;21.13;69.10
63554;BME280;49699;48.072;7.800;2022-10-16T11:29:47;99529.22;;;21.21;68.74
63554;BME280;49699;48.072;7.800;2022-10-16T11:32:29;99524.00;;;21.29;68.59
63554;BME280;49699;48.072;7.800;2022-10-16T11:35:00;99527.38;;;21.39;67.90
63554;BME280;49699;48.072;7.800;2022-10-16T11:37:32;99527.28;;;21.48;67.39
63554;BME280;49699;48.072;7.800;2022-10-16T11:40:21;99518.22;;;21.59;67.02
63554;BME280;49699;48.072;7.800;2022-10-16T11:43:04;99512.81;;;21.69;66.43
63554;BME280;49699;48.072;7.800;2022-10-16T11:45:54;99513.38;;;21.80;66.01
63554;BME280;49699;48.072;7.800;2022-10-16T11:48:39;99509.78;;;21.90;65.60
63554;BME280;49699;48.072;7.800;2022-10-16T11:54:32;99503.16;;;22.20;63.68
63554;BME280;49699;48.072;7.800;2022-10-16T11:57:02;99498.88;;;22.43;61.85
63554;BME280;49699;48.072;7.800;2022-10-16T11:59:43;99502.91;;;22.63;60.17
63554;BME280;49699;48.072;7.800;2022-10-16T12:10:28;99493.63;;;22.75;57.89
63554;BME280;49699;48.072;7.800;2022-10-16T12:12:56;99494.47;;;22.76;57.34
63554;BME280;49699;48.072;7.800;2022-10-16T12:17:49;99487.03;;;22.71;58.28
63554;BME280;49699;48.072;7.800;2022-10-16T12:20:27;99484.38;;;22.71;58.65
63554;BME280;49699;48.072;7.800;2022-10-16T12:23:04;99493.00;;;22.73;58.78
63554;BME280;49699;48.072;7.800;2022-10-16T12:25:38;99496.28;;;22.75;58.89
63554;BME280;49699;48.072;7.800;2022-10-16T12:30:40;99493.19;;;22.80;58.91
63554;BME280;49699;48.072;7.800;2022-10-16T12:33:20;99496.84;;;22.87;58.80
63554;BME280;49699;48.072;7.800;2022-10-16T12:35:46;99489.38;;;22.99;58.42
63554;BME280;49699;48.072;7.800;2022-10-16T12:40:54;99480.22;;;23.17;57.32
63554;BME280;49699;48.072;7.800;2022-10-16T12:45:46;99470.09;;;23.29;56.73
63554;BME280;49699;48.072;7.800;2022-10-16T12:48:20;99466.59;;;23.37;56.35
63554;BME280;49699;48.072;7.800;2022-10-16T12:50:47;99461.63;;;23.42;55.99
63554;BME280;49699;48.072;7.800;2022-10-16T12:53:19;99474.56;;;23.45;55.22
63554;BME280;49699;48.072;7.800;2022-10-16T12:56:22;99471.72;;;23.46;55.13
63554;BME280;49699;48.072;7.800;2022-10-16T13:02:03;99466.91;;;23.58;54.08
63554;BME280;49699;48.072;7.800;2022-10-16T13:04:51;99465.03;;;23.67;53.51
63554;BME280;49699;48.072;7.800;2022-10-16T13:07:41;99463.19;;;23.75;53.33
63554;BME280;49699;48.072;7.800;2022-10-16T13:21:52;99460.88;;;23.72;51.86
63554;BME280;49699;48.072;7.800;2022-10-16T13:24:38;99465.38;;;23.72;51.80
63554;BME280;49699;48.072;7.800;2022-10-16T13:29:37;99461.38;;;23.68;51.80
63554;BME280;49699;48.072;7.800;2022-10-16T13:32:09;99457.56;;;23.70;51.62
63554;BME280;49699;48.072;7.800;2022-10-16T13:34:45;99451.25;;;23.71;51.49
63554;BME280;49699;48.072;7.800;2022-10-16T13:37:18;99461.72;;;23.73;51.64
63554;BME280;49699;48.072;7.800;2022-10-16T13:39:44;99460.72;;;23.74;51.56
63554;BME280;49699;48.072;7.800;2022-10-16T13:42:22;99461.38;;;23.76;50.92
63554;BME280;49699;48.072;7.800;2022-10-16T13:44:51;99466.19;;;23.80;50.61
63554;BME280;49699;48.072;7.800;2022-10-16T13:47:25;99463.97;;;23.84;50.40
63554;BME280;49699;48.072;7.800;2022-10-16T13:50:06;99461.63;;;23.89;50.22
63554;BME280;49699;48.072;7.800;2022-10-16T13:52:32;99458.63;;;23.92;50.11
63554;BME280;49699;48.072;7.800;2022-10-16T13:54:57;99459.63;;;23.91;50.19
63554;BME280;49699;48.072;7.800;2022-10-16T13:57:24;99462.31;;;23.91;50.06
63554;BME280;49699;48.072;7.800;2022-10-16T13:59:50;99450.84;;;23.91;50.06
63554;BME280;49699;48.072;7.800;2022-10-16T14:02:33;99455.81;;;23.94;49.55
63554;BME280;49699;48.072;7.800;2022-10-16T14:05:01;99458.31;;;23.95;49.05
63554;BME280;49699;48.072;7.800;2022-10-16T14:07:29;99458.13;;;23.97;48.64
63554;BME280;49699;48.072;7.800;2022-10-16T14:10:02;99470.25;;;23.99;48.32
63554;BME280;49699;48.072;7.800;2022-10-16T14:12:28;99462.28;;;23.99;48.18
63554;BME280;49699;48.072;7.800;2022-10-16T14:14:55;99459.63;;;23.99;47.91
63554;BME280;49699;48.072;7.800;2022-10-16T14:17:30;99453.97;;;23.94;47.85
63554;BME280;49699;48.072;7.800;2022-10-16T14:19:59;99454.84;;;23.86;48.15
63554;BME280;49699;48.072;7.800;2022-10-16T14:22:33;99461.88;;;23.79;48.24
63554;BME280;49699;48.072;7.800;2022-10-16T14:24:59;99456.88;;;23.76;48.45
63554;BME280;49699;48.072;7.800;2022-10-16T14:30:22;99464.69;;;23.78;48.67
63554;BME280;49699;48.072;7.800;2022-10-16T14:33:03;99461.69;;;23.81;48.63
63554;BME280;49699;48.072;7.800;2022-10-16T14:35:31;99469.84;;;23.79;49.11
63554;BME280;49699;48.072;7.800;2022-10-16T14:37:58;99464.84;;;23.76;48.95
63554;BME280;49699;48.072;7.800;2022-10-16T14:40:27;99469.03;;;23.71;49.21
63554;BME280;49699;48.072;7.800;2022-10-16T14:42:53;99466.88;;;23.66;49.75
63554;BME280;49699;48.072;7.800;2022-10-16T14:45:25;99465.09;;;23.59;49.85
63554;BME280;49699;48.072;7.800;2022-10-16T14:47:56;99469.72;;;23.57;49.65
63554;BME280;49699;48.072;7.800;2022-10-16T14:50:22;99469.41;;;23.51;49.91
63554;BME280;49699;48.072;7.800;2022-10-16T14:52:48;99468.41;;;23.44;49.68
63554;BME280;49699;48.072;7.800;2022-10-16T14:55:13;99469.91;;;23.39;49.98